logo
App data

Crayon Physics Deluxe

Crayon Physics Deluxe is a 2D physics puzzle / sandbox game, in which you get to experience what it would be like if your drawings would be magically transformed into real physical objects. Solve puzzles with your artistic vision and creative use of physics.
Store | Hub | SteamDB | Site
Developer: Kloonigames Publisher: Kloonigames
Genre: Casual, Indie
Languages: English
Tags: Indie (97), Casual (92), Puzzle (90), Physics (72), Family Friendly (47), Touch-Friendly (44), Singleplayer (41), 2D (35), Cute (30), Sandbox (16), Relaxing (15), Level Editor (13), Simulation (12), Great Soundtrack (6)
Category: Single-player
Release date: Jan 7, 2009
Price: $19.99
Old userscore: 85% Metascore: 79%
Owners: 500,000 .. 1,000,000
Followers: 1,126
Peak concurrent players yesterday: 3
Playtime total: 00:39 (average) 01:04 (median)

Steam Spy is still in beta, so expect major bugs.

Owners data:

Access restricted.

This feature is only available to users with special access rights. Sorry.

If you want to proceed, you need to register or log in first and then back Steam Spy on Patreon. Look for Indie or Pro pledge.

Don't forget to use the same email as on Steam Spy!

Audience in 2 weeks:

Access restricted.

This feature is only available to users with special access rights. Sorry.

If you want to proceed, you need to register or log in first and then back Steam Spy on Patreon. Look for Indie or Pro pledge.

Don't forget to use the same email as on Steam Spy!

Peak daily concurrent players:

CCU data courtesy of SteamDB. Used with permission.

Hourly concurrent players:

Daily Twitch stats:

Hourly Twitch stats:

YouTube:

The views data is based on top 50 videos uploaded last week. Actual number of views might be more than the number shown.

The displayed number of videos uploaded yesterday is limited to 50, so if there were more videos uploaded, the number will still show 50.

If the game has commonly used word as its name (like "FEAR" or "Volume") its number of Youtube views might be wrong.

Games similar to this one:

# Game Release date
Price
Score rank
(Userscore / Metascore)
Owners
Players
Playtime (Median)
1 Totally Unbalanced Jul 29, 2016 $2.99N/A (N/A)0 .. 20,0000%00:00 (00:00)
2 Mines of Mars Sep 10, 2018 $6.99N/A (N/A)0 .. 20,0000%00:00 (00:00)
3 Unhack Feb 20, 2014 $3.99N/A (N/A)20,000 .. 50,0000%00:00 (00:00)
4 PixelJunk Eden Feb 2, 2012 $9.99N/A (N/A/81%)200,000 .. 500,0000%00:00 (00:00)
5 Oik 2 Mar 28, 2017 $0.99N/A (N/A)20,000 .. 50,0000%00:00 (00:00)
6 Burst Mar 14, 2016 $1.99N/A (N/A)50,000 .. 100,0000%00:00 (00:00)
7 Space Drifters 2D Mar 28, 2016 $0.99N/A (N/A)20,000 .. 50,0000%00:00 (00:00)
8 Pressured Jul 18, 2014 $2.99N/A (N/A)200,000 .. 500,0000%00:00 (00:00)
9 ConflictCraft Dec 8, 2016 $2.99N/A (N/A)20,000 .. 50,0000%00:00 (00:00)
10 Rescue Team 5 Sep 30, 2015 $3.99N/A (N/A)20,000 .. 50,0000%00:00 (00:00)
11 Pixel Survivors May 5, 2016 $3.99N/A (N/A)50,000 .. 100,0000%00:00 (00:00)
12 Blocks That Matter Aug 19, 2011 $4.99N/A (N/A/72%)200,000 .. 500,0000%00:00 (00:00)
13 CrossCells May 26, 2017 $2.99N/A (N/A)20,000 .. 50,0000%00:00 (00:00)
14 Forgotten, Not Lost - A Kinetic Novel Apr 2, 2016 $1.99N/A (N/A)50,000 .. 100,0000%00:00 (00:00)
15 Fate Tectonics Sep 9, 2015 $9.99N/A (N/A)0 .. 20,0000%00:00 (00:00)
16 Spy Chameleon - RGB Agent Jun 11, 2014 $4.99N/A (N/A)20,000 .. 50,0000%00:00 (00:00)
17 The Housewife Aug 25, 2016 $4.99N/A (N/A)200,000 .. 500,0000%00:00 (00:00)
18 Goodnight Butcher Dec 18, 2015 $1.99N/A (N/A)20,000 .. 50,0000%00:00 (00:00)
19 Crash Drive 2 May 28, 2015 $4.99N/A (N/A)50,000 .. 100,0000%00:00 (00:00)
20 Triple Town Dec 6, 2012 $9.99N/A (N/A)50,000 .. 100,0000%00:00 (00:00)
21 CarX Drift Racing Online Nov 17, 2017 $9.99N/A (N/A)100,000 .. 200,00033.33%00:48 (00:16)
22 Prehistoric Tales May 25, 2016 $2.99N/A (N/A)0 .. 20,0000%00:00 (00:00)
23 Painters Guild Sep 1, 2015 $9.99N/A (N/A)20,000 .. 50,0000%00:00 (00:00)
24 Cute Things Dying Violently Sep 2, 2015 $2.99N/A (N/A)0 .. 20,0000%00:00 (00:00)
25 Sig.NULL Sep 27, 2016 $0.51N/A (N/A)100,000 .. 200,0000%00:00 (00:00)
26 Moonlight Feb 5, 2016 $1.99N/A (N/A)0 .. 20,0000%00:00 (00:00)
27 Bob Was Hungry Aug 19, 2015 $9.99N/A (N/A)50,000 .. 100,0000%00:00 (00:00)
28 Particulars Nov 19, 2014 $5.99N/A (N/A/74%)20,000 .. 50,0000%00:00 (00:00)
29 Autumn Sep 23, 2014 $2.99N/A (N/A)100,000 .. 200,0000%00:00 (00:00)
30 Weapons Genius Jul 7, 2015 $6.99N/A (N/A)100,000 .. 200,0000%00:00 (00:00)
31 Quantum Rush Champions Dec 4, 2014 $2.99N/A (N/A)20,000 .. 50,0000%00:00 (00:00)
32 Strategy & Tactics: Dark Ages Aug 4, 2017 $14.99N/A (N/A)20,000 .. 50,0000%00:00 (00:00)
33 Surfingers Jan 27, 2016 $1.99N/A (N/A)50,000 .. 100,0000%00:00 (00:00)
34 Pixel Puzzles 2: Birds Feb 20, 2015 $9.99N/A (N/A)200,000 .. 500,0000%00:00 (00:00)
35 Girls Like Robots Feb 14, 2014 $6.99N/A (N/A)100,000 .. 200,0000%00:00 (00:00)
36 The Dolls: Reborn May 25, 2016 $4.99N/A (N/A)50,000 .. 100,0000%00:00 (00:00)
37 Job the Leprechaun Jul 31, 2015 $1.01N/A (N/A)20,000 .. 50,0000%00:00 (00:00)
38 Cosmonautica Jul 31, 2015 $9.99N/A (N/A)100,000 .. 200,0000%00:00 (00:00)
39 Farm Life: Natures Adventure Aug 8, 2016 $0.99N/A (N/A)50,000 .. 100,00020%05:01 (01:40)
40 Until I Have You Apr 4, 2016 $13.99N/A (N/A)0 .. 20,0000%00:00 (00:00)
41 Astro Emporia Feb 2, 2015 $0.99N/A (N/A)20,000 .. 50,0000%00:00 (00:00)
42 Farm for your Life Jun 5, 2013 $9.99N/A (N/A)50,000 .. 100,0000%00:00 (00:00)
43 Magma Tsunami Jun 1, 2016 $0.99N/A (N/A)100,000 .. 200,0000%00:00 (00:00)
44 Robot vs Birds Zombies Jun 1, 2013 $0.99N/A (N/A)0 .. 20,0000%00:00 (00:00)
45 Letter Quest: Grimm's Journey Nov 20, 2014 $2.39N/A (N/A/73%)50,000 .. 100,0000%00:00 (00:00)
46 Carrie's Order Up! Sep 13, 2016 $2.99N/A (N/A)0 .. 20,0000%00:00 (00:00)
47 Sophie's Curse Mar 16, 2016 $4.99N/A (N/A)50,000 .. 100,0000%00:00 (00:00)
48 Streets of Chaos Jan 23, 2015 N/AN/A (N/A)100,000 .. 200,0000%00:00 (00:00)
49 Tribloos 2 Jan 12, 2013 $4.99N/A (N/A)100,000 .. 200,0000%00:00 (00:00)
50 Frog Climbers Oct 6, 2016 $6.99N/A (N/A)20,000 .. 50,0000%00:00 (00:00)
51 Labyrinth Simulator Sep 21, 2015 $4.99N/A (N/A)0 .. 20,0000%00:00 (00:00)
52 Marble Duel Nov 12, 2015 $4.99N/A (N/A)50,000 .. 100,0000%00:00 (00:00)
53 Luke Sidewalker Nov 25, 2016 $0.99N/A (N/A)50,000 .. 100,0000%00:00 (00:00)
54 Hustle Cat Mar 16, 2016 $19.99N/A (N/A)20,000 .. 50,0000%00:00 (00:00)
55 Pester Jan 25, 2013 $0.99N/A (N/A)100,000 .. 200,0000%00:00 (00:00)
56 On Rusty Trails Jun 13, 2016 $3.24N/A (N/A/77%)20,000 .. 50,0000%00:00 (00:00)
57 Wolf Simulator Nov 16, 2016 $0.51N/A (N/A)100,000 .. 200,0000%00:00 (00:00)
58 Lift It Jan 20, 2017 $4.99N/A (N/A)50,000 .. 100,0000%00:00 (00:00)
59 Cubot Jan 8, 2015 $1.99N/A (N/A)20,000 .. 50,0000%00:00 (00:00)
60 Windosill May 26, 2009 $2.99N/A (N/A)100,000 .. 200,0000%00:00 (00:00)
61 Triangle Jan 30, 2017 $0.49N/A (N/A)100,000 .. 200,0000%00:00 (00:00)
62 Blueprint Tycoon May 13, 2016 $1.01N/A (N/A)50,000 .. 100,0000%00:00 (00:00)
63 Red Goblin: Cursed Forest May 15, 2015 $4.99N/A (N/A)20,000 .. 50,0000%00:00 (00:00)
64 Wildlife Park 3 May 12, 2014 $9.99N/A (N/A)50,000 .. 100,0000%00:00 (00:00)

Geography of active players over time, share:

Access restricted.

This feature is only available to users with special access rights. Sorry.

If you want to proceed, you need to register or log in first and then back Steam Spy on Patreon. Look for Indie or Pro pledge.

Don't forget to use the same email as on Steam Spy!

Tags over time:

Access restricted.

This feature is only available to users with special access rights. Sorry.

If you want to proceed, you need to register or log in first and then back Steam Spy on Patreon. Look for Indie or Pro pledge.

Don't forget to use the same email as on Steam Spy!

Owners of this game also own:

Access restricted.

This feature is only available to users with special access rights. Sorry.

If you want to proceed, you need to register or log in first and then back Steam Spy on Patreon. Look for Indie or Pro pledge.

Don't forget to use the same email as on Steam Spy!

Playtime distribution:

Access restricted.

This feature is only available to users with special access rights. Sorry.

If you want to proceed, you need to register or log in first and then back Steam Spy on Patreon. Look for Indie or Pro pledge.

Don't forget to use the same email as on Steam Spy!

Playtime (2 weeks):

Access restricted.

This feature is only available to users with special access rights. Sorry.

If you want to proceed, you need to register or log in first and then back Steam Spy on Patreon. Look for Indie or Pro pledge.

Don't forget to use the same email as on Steam Spy!

User reviews:

Login required.

Please register or log in to see this information.